Time;durP1;ratioP1;P1;durP2;ratioP2;P2;SDS_P1;SDS_P2;PMS_P1;PMS_P2;Temp;Humidity;BMP_temperature;BMP_pressure;BME280_temperature;BME280_humidity;BME280_pressure;Samples;Min_cycle;Max_cycle;Signal;HPM_P1;HPM_P2
2022/12/11 00:01:16;;;;;;;2.47;1.50;;;19.60;40.60;;;;;;5025377;28;20072;-62
2022/12/11 00:03:43;;;;;;;1.52;1.20;;;19.60;40.60;;;;;;5013165;28;20056;-62
2022/12/11 00:06:13;;;;;;;2.30;1.67;;;19.60;40.50;;;;;;5030713;28;20129;-62
2022/12/11 00:08:41;;;;;;;2.15;1.70;;;19.60;40.60;;;;;;5030421;28;20048;-62
2022/12/11 00:11:14;;;;;;;1.55;1.45;;;19.60;40.60;;;;;;5030617;28;20045;-63
2022/12/11 00:13:42;;;;;;;1.85;1.60;;;19.60;40.60;;;;;;5030032;28;20052;-62
2022/12/11 00:16:09;;;;;;;1.98;1.77;;;19.60;40.60;;;;;;5029502;28;20053;-62
2022/12/11 00:18:36;;;;;;;1.77;1.40;;;19.60;40.60;;;;;;5030249;28;20085;-62
2022/12/11 00:21:06;;;;;;;1.48;1.30;;;19.60;40.60;;;;;;5029982;28;20525;-62
2022/12/11 00:23:36;;;;;;;1.30;1.25;;;19.60;40.60;;;;;;5030076;28;20052;-62
2022/12/11 00:26:09;;;;;;;2.67;1.70;;;19.60;40.60;;;;;;5029646;28;20055;-62
2022/12/11 00:28:36;;;;;;;1.67;1.58;;;19.60;40.60;;;;;;5030120;28;20540;-62
2022/12/11 00:31:05;;;;;;;1.20;1.10;;;19.60;40.60;;;;;;5030305;28;20429;-62
2022/12/11 00:33:32;;;;;;;1.27;1.17;;;19.60;40.60;;;;;;5028757;28;20055;-62
2022/12/11 00:35:59;;;;;;;2.13;1.50;;;19.50;40.60;;;;;;5030355;28;20042;-62
2022/12/11 00:38:27;;;;;;;1.38;1.27;;;19.60;40.60;;;;;;5030085;28;20053;-62
2022/12/11 00:40:58;;;;;;;1.90;1.70;;;19.60;40.60;;;;;;5029923;28;20056;-62
2022/12/11 00:43:25;;;;;;;2.00;1.30;;;19.50;40.60;;;;;;5024307;28;20388;-62
2022/12/11 00:45:52;;;;;;;1.38;1.20;;;19.60;40.60;;;;;;5029834;28;20136;-62
2022/12/11 00:48:19;;;;;;;2.25;1.77;;;19.60;40.60;;;;;;5029764;28;20190;-63
2022/12/11 00:50:46;;;;;;;1.13;1.02;;;19.50;40.60;;;;;;5027734;28;20049;-62
2022/12/11 00:53:14;;;;;;;1.35;1.25;;;19.50;40.60;;;;;;5030207;28;20053;-63
2022/12/11 00:55:41;;;;;;;1.60;1.50;;;19.50;40.60;;;;;;5029677;28;20053;-62
2022/12/11 00:58:09;;;;;;;1.65;1.35;;;19.60;40.70;;;;;;5029373;28;20042;-62
2022/12/11 01:00:38;;;;;;;2.53;1.65;;;19.60;40.70;;;;;;5029591;28;20432;-62
2022/12/11 01:03:05;;;;;;;1.10;1.02;;;19.60;40.70;;;;;;5029336;28;20433;-62
2022/12/11 01:05:33;;;;;;;1.85;1.67;;;19.60;40.70;;;;;;5029147;28;20508;-62
2022/12/11 01:08:00;;;;;;;2.00;1.80;;;19.60;40.70;;;;;;5028544;28;20049;-62
2022/12/11 01:10:27;;;;;;;1.80;1.42;;;19.50;40.60;;;;;;5027772;28;20056;-62
2022/12/11 01:12:58;;;;;;;2.30;1.70;;;19.50;40.70;;;;;;5028272;28;20056;-62
2022/12/11 01:15:27;;;;;;;;;;;19.50;40.70;;;;;;5029532;28;20049;-62
2022/12/11 01:17:55;;;;;;;1.45;1.35;;;19.50;40.70;;;;;;5029645;28;19921;-62
2022/12/11 01:20:24;;;;;;;1.98;1.25;;;19.50;40.70;;;;;;5028631;28;20045;-62
2022/12/11 01:22:53;;;;;;;1.35;1.23;;;19.50;40.70;;;;;;5027887;28;20495;-62
2022/12/11 01:25:21;;;;;;;1.38;1.27;;;19.50;40.70;;;;;;5028746;28;20422;-63
2022/12/11 01:27:50;;;;;;;1.90;1.38;;;19.50;40.70;;;;;;5028430;28;20052;-62
2022/12/11 01:30:19;;;;;;;1.67;1.53;;;19.50;40.70;;;;;;5024746;28;20050;-62
2022/12/11 01:32:47;;;;;;;1.83;1.70;;;19.60;40.70;;;;;;5029003;28;20365;-62
2022/12/11 01:35:15;;;;;;;1.67;1.52;;;19.60;40.70;;;;;;5028859;28;20041;-62
2022/12/11 01:37:42;;;;;;;1.83;1.42;;;19.60;40.70;;;;;;5028336;28;20060;-62
2022/12/11 01:40:12;;;;;;;1.70;1.50;;;19.50;40.60;;;;;;5028209;28;20046;-62
2022/12/11 01:42:39;;;;;;;2.05;1.20;;;19.60;40.70;;;;;;5028720;28;20049;-62
2022/12/11 01:45:39;;;;;;;2.03;1.85;;;19.60;40.70;;;;;;5028447;28;20124;-62
2022/12/11 01:48:22;;;;;;;2.10;1.90;;;19.60;40.60;;;;;;5028323;28;20409;-62
2022/12/11 01:51:03;;;;;;;2.80;1.73;;;19.60;40.60;;;;;;5027801;28;20050;-62
2022/12/11 01:53:39;;;;;;;3.83;2.10;;;19.60;40.60;;;;;;5028693;28;20037;-63
2022/12/11 01:56:07;;;;;;;1.98;1.83;;;19.60;40.60;;;;;;5028238;28;20513;-62
2022/12/11 01:58:41;;;;;;;1.95;1.75;;;19.60;40.60;;;;;;5028377;28;20379;-63
2022/12/11 02:01:13;;;;;;;1.92;1.70;;;19.50;40.50;;;;;;5027864;28;20041;-62
2022/12/11 02:03:41;;;;;;;1.48;1.20;;;19.50;40.50;;;;;;5027792;28;20076;-62
2022/12/11 02:06:31;;;;;;;2.00;1.83;;;19.50;40.50;;;;;;5028882;28;20045;-62
2022/12/11 02:08:59;;;;;;;1.75;1.63;;;19.50;40.50;;;;;;5028037;28;20198;-62
2022/12/11 02:11:38;;;;;;;1.65;1.55;;;19.50;40.50;;;;;;5023590;28;20057;-62
2022/12/11 02:14:22;;;;;;;2.03;1.88;;;19.50;40.50;;;;;;5027797;28;20540;-62
2022/12/11 02:16:58;;;;;;;1.92;1.80;;;19.50;40.50;;;;;;5027045;28;20063;-62
2022/12/11 02:19:50;;;;;;;1.80;1.70;;;19.50;40.40;;;;;;5028290;28;20255;-62
2022/12/11 02:22:46;;;;;;;2.22;1.90;;;19.50;40.50;;;;;;5028380;28;20045;-62
2022/12/11 02:25:31;;;;;;;2.00;1.80;;;19.50;40.40;;;;;;5027488;28;20041;-62
2022/12/11 02:28:15;;;;;;;2.00;1.80;;;19.50;40.40;;;;;;5028185;28;20049;-62
2022/12/11 02:30:49;;;;;;;2.92;2.00;;;19.50;40.50;;;;;;5028002;28;20054;-62
2022/12/11 02:33:19;;;;;;;2.53;2.15;;;19.50;41.00;;;;;;5028238;28;20049;-62
2022/12/11 02:35:48;;;;;;;1.77;1.67;;;19.40;40.40;;;;;;5028212;28;20075;-62
2022/12/11 02:38:32;;;;;;;2.67;2.05;;;19.50;40.50;;;;;;5027934;28;20060;-62
2022/12/11 02:41:00;;;;;;;3.13;2.13;;;19.50;40.50;;;;;;5027875;28;20506;-62
2022/12/11 02:43:30;;;;;;;2.00;1.80;;;19.50;40.50;;;;;;5027180;28;20055;-62
2022/12/11 02:45:59;;;;;;;2.88;2.15;;;19.50;40.50;;;;;;5027369;28;20045;-62
2022/12/11 02:48:26;;;;;;;2.85;2.00;;;19.40;40.40;;;;;;5028006;28;20258;-62
2022/12/11 02:50:57;;;;;;;2.83;2.35;;;19.50;40.40;;;;;;5027581;28;20042;-62
2022/12/11 02:53:28;;;;;;;3.88;2.50;;;19.40;40.30;;;;;;5027640;28;20315;-62
2022/12/11 02:56:07;;;;;;;2.13;1.90;;;19.40;40.30;;;;;;5023354;28;20072;-62
2022/12/11 02:58:40;;;;;;;2.90;2.03;;;19.40;40.30;;;;;;5027851;28;20045;-63
2022/12/11 03:01:07;;;;;;;2.40;2.15;;;19.40;40.30;;;;;;5027567;28;20050;-62
2022/12/11 03:03:34;;;;;;;2.25;1.92;;;19.40;40.30;;;;;;5027765;28;20100;-63
2022/12/11 03:06:02;;;;;;;3.03;2.53;;;19.40;40.30;;;;;;5027917;28;20056;-62
2022/12/11 03:08:30;;;;;;;2.72;2.40;;;19.40;40.30;;;;;;5027747;28;20056;-62
2022/12/11 03:10:58;;;;;;;2.88;2.63;;;19.40;40.30;;;;;;5027523;28;20059;-62
2022/12/11 03:13:25;;;;;;;3.17;2.50;;;19.40;40.30;;;;;;5027867;28;20041;-62
2022/12/11 03:16:10;;;;;;;2.58;2.38;;;19.40;40.30;;;;;;5030731;28;20053;-62
2022/12/11 03:19:00;;;;;;;3.58;2.42;;;19.40;40.30;;;;;;5030286;28;20413;-62
2022/12/11 03:21:40;;;;;;;2.20;2.00;;;19.40;40.20;;;;;;5030013;28;20053;-62
2022/12/11 03:24:20;;;;;;;2.80;2.22;;;19.40;40.30;;;;;;5031754;28;20506;-62
2022/12/11 03:26:55;;;;;;;2.25;2.05;;;19.40;40.20;;;;;;5031034;28;20049;-62
2022/12/11 03:29:34;;;;;;;2.75;1.88;;;19.40;40.20;;;;;;5029923;28;20057;-62
2022/12/11 03:32:13;;;;;;;2.75;2.35;;;19.40;40.10;;;;;;5031248;28;20052;-62
2022/12/11 03:34:58;;;;;;;2.65;2.30;;;19.40;40.10;;;;;;5030483;28;20057;-62
2022/12/11 03:37:30;;;;;;;3.20;2.60;;;19.40;40.10;;;;;;5028972;28;20496;-62
2022/12/11 03:40:02;;;;;;;2.88;2.30;;;19.40;40.60;;;;;;5030463;28;20505;-62
2022/12/11 03:42:30;;;;;;;3.00;2.50;;;19.40;40.10;;;;;;5025599;28;20049;-62
2022/12/11 03:44:59;;;;;;;2.88;2.42;;;19.40;40.10;;;;;;5030707;28;20125;-62
2022/12/11 03:47:28;;;;;;;3.58;2.72;;;19.40;40.10;;;;;;5030978;28;20057;-62
2022/12/11 03:49:58;;;;;;;3.22;2.47;;;19.40;40.10;;;;;;5029435;28;20136;-62
2022/12/11 03:52:28;;;;;;;3.33;2.40;;;19.40;40.10;;;;;;5030001;28;20053;-62
2022/12/11 03:54:59;;;;;;;2.67;2.13;;;19.40;40.10;;;;;;5030821;28;20050;-62
2022/12/11 03:57:31;;;;;;;2.90;2.30;;;19.40;40.10;;;;;;5030578;28;20375;-62
2022/12/11 03:59:58;;;;;;;3.33;2.25;;;19.40;40.10;;;;;;5029687;28;20049;-62
2022/12/11 04:02:26;;;;;;;3.47;2.58;;;19.40;40.00;;;;;;5030589;28;20372;-62
2022/12/11 04:04:53;;;;;;;3.83;2.70;;;19.40;40.00;;;;;;5029054;28;20044;-61
2022/12/11 04:07:20;;;;;;;4.32;3.13;;;19.40;40.00;;;;;;5029461;28;20426;-62
2022/12/11 04:09:47;;;;;;;3.85;2.58;;;19.40;40.00;;;;;;5030335;28;20244;-62
2022/12/11 04:12:14;;;;;;;3.63;2.60;;;19.40;40.00;;;;;;5029896;28;20056;-62
2022/12/11 04:26:07;;;;;;;3.88;2.75;;;19.30;39.90;;;;;;5029029;28;20068;-62
2022/12/11 04:28:34;;;;;;;4.38;3.20;;;19.30;39.90;;;;;;5029402;28;20056;-62
2022/12/11 04:31:01;;;;;;;3.28;2.60;;;19.30;39.90;;;;;;5029892;28;20046;-62
2022/12/11 04:33:28;;;;;;;3.85;2.53;;;19.30;40.10;;;;;;5030120;28;20058;-62
2022/12/11 04:36:00;;;;;;;3.03;2.40;;;19.30;39.90;;;;;;5029210;28;20061;-62
2022/12/11 04:38:27;;;;;;;3.75;2.65;;;19.30;39.90;;;;;;5029849;28;20055;-62
2022/12/11 04:41:09;;;;;;;2.92;2.50;;;19.30;39.90;;;;;;5029311;28;20061;-62
2022/12/11 04:43:36;;;;;;;3.97;2.70;;;19.30;39.90;;;;;;5029819;28;20045;-62
2022/12/11 04:46:15;;;;;;;4.38;3.13;;;19.40;39.90;;;;;;5029128;28;20041;-62
2022/12/11 04:48:43;;;;;;;3.67;2.90;;;19.30;39.90;;;;;;5029160;28;20049;-62
2022/12/11 04:51:11;;;;;;;4.55;3.13;;;19.30;39.90;;;;;;5029646;28;20349;-62
2022/12/11 04:53:38;;;;;;;3.35;2.53;;;19.30;39.90;;;;;;5029548;28;20497;-62
2022/12/11 04:56:07;;;;;;;3.55;3.00;;;19.30;39.90;;;;;;5025495;28;20320;-62
2022/12/11 04:58:35;;;;;;;4.32;2.80;;;19.30;39.90;;;;;;5029416;28;20045;-62
2022/12/11 05:01:17;;;;;;;3.60;2.80;;;19.30;39.90;;;;;;5029132;28;20505;-62
2022/12/11 05:03:45;;;;;;;3.08;2.47;;;19.30;39.80;;;;;;5027590;28;20080;-62
2022/12/11 05:06:13;;;;;;;4.32;3.15;;;19.30;39.80;;;;;;5029217;28;20433;-62
2022/12/11 05:08:41;;;;;;;4.60;3.40;;;19.30;39.90;;;;;;5029327;28;20456;-62
2022/12/11 05:11:11;;;;;;;3.72;2.63;;;19.30;39.90;;;;;;5028869;28;20060;-62
2022/12/11 05:13:39;;;;;;;2.58;2.22;;;19.30;39.80;;;;;;5029149;28;20056;-62
2022/12/11 05:16:08;;;;;;;4.43;3.10;;;19.30;39.80;;;;;;5029142;28;20053;-62
2022/12/11 05:18:35;;;;;;;2.90;2.58;;;19.30;39.80;;;;;;5027276;28;20038;-62
2022/12/11 05:21:05;;;;;;;3.63;2.70;;;19.30;39.80;;;;;;5028479;28;20080;-62
2022/12/11 05:23:33;;;;;;;4.90;3.33;;;19.30;39.80;;;;;;5026910;28;20060;-62
2022/12/11 05:26:03;;;;;;;3.10;2.80;;;19.30;39.70;;;;;;5028740;28;20389;-63
2022/12/11 05:28:32;;;;;;;3.70;2.70;;;19.30;39.70;;;;;;5022115;28;20050;-62
2022/12/11 05:31:04;;;;;;;3.83;2.65;;;19.30;39.80;;;;;;5028707;28;20045;-63
2022/12/11 05:33:31;;;;;;;5.38;3.30;;;19.30;39.80;;;;;;5027614;28;20049;-62
2022/12/11 05:35:58;;;;;;;3.50;2.85;;;19.30;39.80;;;;;;5029001;28;20055;-62
2022/12/11 05:38:25;;;;;;;4.55;3.28;;;19.30;39.60;;;;;;5028984;28;20049;-62
2022/12/11 05:41:00;;;;;;;5.03;3.80;;;19.30;39.40;;;;;;5028284;28;20057;-62
2022/12/11 05:43:30;;;;;;;4.70;3.38;;;19.20;39.30;;;;;;5027090;28;20049;-62
2022/12/11 05:46:15;;;;;;;4.50;3.43;;;19.30;39.20;;;;;;5028616;28;20041;-62
2022/12/11 05:48:45;;;;;;;5.93;3.70;;;19.20;39.20;;;;;;5028921;28;20096;-62
2022/12/11 05:51:13;;;;;;;4.40;3.50;;;19.20;39.30;;;;;;5028392;28;20405;-62
2022/12/11 05:53:41;;;;;;;4.65;3.28;;;19.20;39.40;;;;;;5027719;28;20052;-62
2022/12/11 05:56:17;;;;;;;4.40;3.30;;;19.20;39.40;;;;;;5028192;28;20049;-62
2022/12/11 05:58:45;;;;;;;5.47;3.85;;;19.20;39.30;;;;;;5028603;28;20068;-62
2022/12/11 06:01:20;;;;;;;4.28;3.05;;;19.20;39.30;;;;;;5025241;28;20536;-62
2022/12/11 06:03:48;;;;;;;6.78;3.08;;;19.20;39.30;;;;;;5028742;28;20428;-62
2022/12/11 06:06:15;;;;;;;3.80;3.20;;;19.20;39.30;;;;;;5027746;28;20079;-62
2022/12/11 06:08:42;;;;;;;6.15;3.63;;;19.30;39.30;;;;;;5028514;28;20497;-62
2022/12/11 06:11:15;;;;;;;4.60;3.45;;;19.30;39.20;;;;;;5026402;28;20312;-62
2022/12/11 06:13:49;;;;;;;5.72;3.30;;;19.30;39.20;;;;;;5027083;28;20080;-62
2022/12/11 06:16:16;;;;;;;4.60;3.17;;;19.30;39.10;;;;;;5027974;28;20053;-62
2022/12/11 06:18:44;;;;;;;3.75;2.95;;;19.30;39.10;;;;;;5027065;28;20049;-62
2022/12/11 06:21:17;;;;;;;6.10;3.40;;;19.30;39.10;;;;;;5028115;28;20056;-62
2022/12/11 06:23:45;;;;;;;4.05;3.30;;;19.40;39.00;;;;;;5027604;28;20048;-62
2022/12/11 06:26:14;;;;;;;5.22;3.75;;;19.40;38.90;;;;;;5028365;28;20052;-62
2022/12/11 06:28:42;;;;;;;5.22;3.50;;;19.40;38.80;;;;;;5027843;28;20111;-62
2022/12/11 06:31:09;;;;;;;5.15;3.22;;;19.40;38.80;;;;;;5026510;28;20049;-63
2022/12/11 06:33:36;;;;;;;4.85;4.03;;;19.40;38.80;;;;;;5025994;28;20046;-62
2022/12/11 06:36:05;;;;;;;4.60;3.70;;;19.40;38.70;;;;;;5028023;28;20434;-62
2022/12/11 06:38:32;;;;;;;4.50;3.30;;;19.50;38.70;;;;;;5023261;28;20048;-62
2022/12/11 06:41:03;;;;;;;4.70;3.70;;;19.50;38.60;;;;;;5027522;28;20494;-62
2022/12/11 06:43:35;;;;;;;8.68;4.20;;;19.50;38.50;;;;;;5028363;28;20084;-62
2022/12/11 06:46:04;;;;;;;4.35;3.22;;;19.50;38.40;;;;;;5026341;28;20529;-62
2022/12/11 06:48:31;;;;;;;5.57;3.40;;;19.60;38.40;;;;;;5027179;28;20322;-62
2022/12/11 06:50:59;;;;;;;5.50;3.72;;;19.60;38.30;;;;;;5031672;28;20140;-62
2022/12/11 06:53:26;;;;;;;5.03;3.35;;;19.60;38.20;;;;;;5032083;28;20056;-62
2022/12/11 06:55:53;;;;;;;4.75;3.45;;;19.60;38.10;;;;;;5031308;28;20521;-62
2022/12/11 06:58:20;;;;;;;5.60;4.10;;;19.60;38.00;;;;;;5031925;28;20071;-62
2022/12/11 07:00:47;;;;;;;5.07;4.05;;;19.70;38.00;;;;;;5030976;28;20056;-62
2022/12/11 07:03:14;;;;;;;5.13;3.45;;;19.70;38.00;;;;;;5031544;28;20058;-62
2022/12/11 07:05:41;;;;;;;4.97;3.60;;;19.70;37.90;;;;;;5029789;28;20049;-62
2022/12/11 07:08:08;;;;;;;5.93;4.00;;;19.70;37.90;;;;;;5031396;28;20072;-62
2022/12/11 07:10:36;;;;;;;5.40;3.35;;;19.70;37.80;;;;;;5031666;28;20076;-62
2022/12/11 07:13:03;;;;;;;4.97;3.65;;;19.80;37.80;;;;;;5029820;28;20509;-62
2022/12/11 07:15:30;;;;;;;5.82;4.25;;;19.80;37.70;;;;;;5031066;28;20053;-62
2022/12/11 07:17:57;;;;;;;5.32;3.22;;;19.80;37.60;;;;;;5030266;28;20601;-62
2022/12/11 07:20:24;;;;;;;5.10;3.58;;;19.80;37.60;;;;;;5031470;28;20050;-62
2022/12/11 07:22:53;;;;;;;5.60;4.40;;;19.90;37.60;;;;;;5026143;28;20051;-62
2022/12/11 07:25:20;;;;;;;7.15;3.65;;;19.90;37.60;;;;;;5031120;28;20387;-62
2022/12/11 07:27:47;;;;;;;6.07;3.33;;;19.90;37.50;;;;;;5029747;28;20057;-62
2022/12/11 07:30:14;;;;;;;5.53;3.78;;;19.90;37.40;;;;;;5030035;28;20345;-62
2022/12/11 07:32:41;;;;;;;5.55;4.15;;;20.00;37.40;;;;;;5031350;28;20125;-62
2022/12/11 07:35:08;;;;;;;5.90;4.07;;;19.90;37.30;;;;;;5031157;28;20406;-62
2022/12/11 07:37:38;;;;;;;5.18;4.22;;;19.90;37.30;;;;;;5030395;28;20053;-62
2022/12/11 07:40:06;;;;;;;5.53;3.75;;;20.00;37.30;;;;;;5030763;28;20076;-62
2022/12/11 07:42:33;;;;;;;7.85;4.55;;;20.00;37.20;;;;;;5030356;28;20045;-62
2022/12/11 07:45:00;;;;;;;6.13;3.92;;;20.00;37.20;;;;;;5030960;28;20065;-62
2022/12/11 07:47:27;;;;;;;6.18;3.72;;;20.00;37.10;;;;;;5030496;28;20099;-62
2022/12/11 07:49:55;;;;;;;5.15;3.97;;;20.00;37.00;;;;;;5030742;28;20486;-61
2022/12/11 07:52:22;;;;;;;6.45;3.97;;;20.10;37.00;;;;;;5031291;28;20049;-63
2022/12/11 07:54:49;;;;;;;5.50;3.88;;;20.10;37.00;;;;;;5030204;28;20056;-62
2022/12/11 07:57:16;;;;;;;5.32;3.92;;;20.10;36.90;;;;;;5030146;28;20449;-62
2022/12/11 07:59:43;;;;;;;5.00;3.55;;;20.10;36.90;;;;;;5030616;28;20041;-62
2022/12/11 08:02:11;;;;;;;4.85;3.55;;;20.10;36.90;;;;;;5029066;28;20053;-62
2022/12/11 08:04:38;;;;;;;5.53;3.90;;;20.10;36.80;;;;;;5028905;28;20045;-62
2022/12/11 08:07:05;;;;;;;4.80;3.72;;;20.20;36.80;;;;;;5029701;28;20790;-62
2022/12/11 08:09:32;;;;;;;7.32;3.97;;;20.20;36.70;;;;;;5024863;28;20432;-62
2022/12/11 08:11:59;;;;;;;5.32;4.32;;;20.20;36.70;;;;;;5028993;28;20051;-62
2022/12/11 08:14:26;;;;;;;4.68;3.40;;;20.20;36.60;;;;;;5029276;28;20529;-62
2022/12/11 08:16:54;;;;;;;5.97;4.18;;;20.30;36.60;;;;;;5030252;28;20042;-62
2022/12/11 08:19:21;;;;;;;4.82;3.78;;;20.30;36.50;;;;;;5030301;28;20397;-62
2022/12/11 08:21:48;;;;;;;5.65;3.85;;;20.30;36.50;;;;;;5030027;28;20442;-62
2022/12/11 08:24:19;;;;;;;4.38;3.65;;;20.30;36.50;;;;;;5029959;28;20411;-62
2022/12/11 08:26:47;;;;;;;6.60;4.50;;;20.30;36.40;;;;;;5029433;28;20417;-62
2022/12/11 08:29:14;;;;;;;5.25;3.83;;;20.30;36.40;;;;;;5030161;28;20064;-62
2022/12/11 08:31:41;;;;;;;7.85;4.50;;;20.30;36.40;;;;;;5030114;28;20049;-62
2022/12/11 08:34:12;;;;;;;7.63;4.70;;;20.40;36.30;;;;;;5030101;28;20057;-62
2022/12/11 08:36:40;;;;;;;6.03;3.60;;;20.40;36.30;;;;;;5028641;28;20538;-62
2022/12/11 08:39:07;;;;;;;4.03;3.08;;;20.40;36.20;;;;;;5029865;28;20052;-62
2022/12/11 08:41:34;;;;;;;7.00;3.80;;;20.40;36.20;;;;;;5029481;28;20045;-62
2022/12/11 08:44:01;;;;;;;7.30;4.57;;;20.40;36.20;;;;;;5028964;28;20080;-62
2022/12/11 08:46:31;;;;;;;4.97;3.60;;;20.50;36.20;;;;;;5028770;28;20049;-62
2022/12/11 08:48:58;;;;;;;6.47;3.58;;;20.50;36.10;;;;;;5028788;28;20049;-62
2022/12/11 08:51:27;;;;;;;5.50;4.00;;;20.50;36.10;;;;;;5029817;28;20100;-62
2022/12/11 08:53:59;;;;;;;4.55;3.63;;;20.60;36.10;;;;;;5028621;28;20049;-62
2022/12/11 08:56:28;;;;;;;5.38;4.32;;;20.60;36.00;;;;;;5024710;28;20131;-62
2022/12/11 08:58:57;;;;;;;4.53;3.58;;;20.50;35.90;;;;;;5029479;28;20250;-62
2022/12/11 09:01:25;;;;;;;5.82;3.90;;;20.60;35.90;;;;;;5029043;28;20063;-62
2022/12/11 09:03:55;;;;;;;5.82;4.07;;;20.60;35.80;;;;;;5027707;28;20049;-62
2022/12/11 09:06:24;;;;;;;5.20;3.75;;;20.60;35.80;;;;;;5027310;28;20105;-62
2022/12/11 09:08:52;;;;;;;5.60;3.70;;;20.60;35.70;;;;;;5027119;28;20488;-62
2022/12/11 09:11:26;;;;;;;4.68;3.45;;;20.60;35.70;;;;;;5028942;28;20057;-62
2022/12/11 09:13:54;;;;;;;4.10;3.28;;;20.60;35.70;;;;;;5027199;28;20048;-62
2022/12/11 09:16:24;;;;;;;6.28;4.00;;;20.60;35.60;;;;;;5029404;28;20080;-62
2022/12/11 09:18:53;;;;;;;4.43;3.38;;;20.70;35.60;;;;;;5028960;28;20061;-62
2022/12/11 09:21:23;;;;;;;4.85;3.53;;;20.70;35.60;;;;;;5028132;28;20080;-62
2022/12/11 09:23:55;;;;;;;4.80;3.60;;;20.70;36.10;;;;;;5028154;28;20053;-62
2022/12/11 09:26:23;;;;;;;5.32;3.38;;;20.70;35.50;;;;;;5028639;28;20080;-62
2022/12/11 09:28:52;;;;;;;4.60;3.50;;;20.70;35.40;;;;;;5028012;28;20060;-62
2022/12/11 09:31:25;;;;;;;5.63;3.83;;;20.70;35.40;;;;;;5028274;28;20516;-62
2022/12/11 09:33:59;;;;;;;4.75;3.83;;;20.80;35.40;;;;;;5023283;28;20354;-62
2022/12/11 09:36:27;;;;;;;4.75;3.55;;;20.80;35.40;;;;;;5028022;28;20045;-62
2022/12/11 09:38:55;;;;;;;4.03;3.20;;;20.80;35.30;;;;;;5028503;28;20494;-62
2022/12/11 09:41:37;;;;;;;5.40;4.30;;;20.80;35.30;;;;;;5028659;28;20052;-62
2022/12/11 09:44:44;;;;;;;4.80;3.50;;;20.80;35.20;;;;;;5028283;28;20052;-62
2022/12/11 09:47:37;;;;;;;4.13;3.13;;;20.80;35.20;;;;;;5027779;28;20045;-62
2022/12/11 09:50:22;;;;;;;5.32;3.42;;;20.80;35.20;;;;;;5028817;28;20057;-62
2022/12/11 09:53:03;;;;;;;4.72;3.40;;;20.80;35.20;;;;;;5027980;28;20046;-62
2022/12/11 09:56:01;;;;;;;4.35;3.38;;;20.80;35.10;;;;;;5028840;28;20073;-62
2022/12/11 09:58:53;;;;;;;3.88;3.10;;;20.90;35.10;;;;;;5026667;28;20517;-61
2022/12/11 10:01:44;;;;;;;5.00;3.20;;;20.90;35.10;;;;;;5028016;28;20049;-62
2022/12/11 10:04:51;;;;;;;4.45;3.50;;;20.90;35.10;;;;;;5028381;28;20099;-62
2022/12/11 10:07:30;;;;;;;5.22;3.33;;;20.90;35.10;;;;;;5026926;28;20513;-62
2022/12/11 10:10:22;;;;;;;3.78;2.97;;;20.90;35.10;;;;;;5029471;28;20055;-62
2022/12/11 10:13:20;;;;;;;3.20;2.90;;;20.90;35.00;;;;;;5028665;28;20037;-63
2022/12/11 10:15:58;;;;;;;3.58;3.15;;;20.90;35.00;;;;;;5027596;28;20059;-62
2022/12/11 10:18:28;;;;;;;4.82;3.40;;;20.90;35.00;;;;;;5027989;28;20044;-62
2022/12/11 10:20:59;;;;;;;5.27;2.97;;;20.90;35.00;;;;;;5028447;28;20401;-62
2022/12/11 10:23:37;;;;;;;3.92;3.13;;;20.90;34.90;;;;;;5026975;28;20298;-62
2022/12/11 10:26:20;;;;;;;3.80;3.40;;;20.90;34.90;;;;;;5028048;28;20049;-62
2022/12/11 10:28:47;;;;;;;5.30;3.92;;;20.90;34.80;;;;;;5027808;28;20330;-62
2022/12/11 10:31:41;;;;;;;5.88;3.42;;;20.90;34.80;;;;;;5027711;28;20041;-62
2022/12/11 10:34:13;;;;;;;5.82;3.20;;;21.00;34.80;;;;;;5027365;28;20044;-62
2022/12/11 10:36:41;;;;;;;3.95;2.88;;;21.00;34.80;;;;;;5027768;28;20057;-62
2022/12/11 10:39:20;;;;;;;4.28;3.15;;;21.00;34.80;;;;;;5023574;28;20466;-62
2022/12/11 10:41:50;;;;;;;3.58;2.90;;;21.00;34.70;;;;;;5027465;28;20505;-62
2022/12/11 10:44:24;;;;;;;4.70;3.20;;;21.00;34.70;;;;;;5027288;28;20059;-62
2022/12/11 10:47:09;;;;;;;3.47;2.70;;;21.10;34.70;;;;;;5025452;28;20049;-62
2022/12/11 10:49:38;;;;;;;4.80;3.30;;;21.10;34.60;;;;;;5027458;28;20257;-62
2022/12/11 10:52:11;;;;;;;5.80;2.72;;;21.10;34.60;;;;;;5029008;28;20050;-62
2022/12/11 10:54:42;;;;;;;4.65;3.53;;;21.10;34.50;;;;;;5027125;28;20424;-62
2022/12/11 10:57:13;;;;;;;3.20;2.90;;;21.20;34.50;;;;;;5028672;28;20059;-62
2022/12/11 10:59:46;;;;;;;4.25;2.95;;;21.20;34.40;;;;;;5028792;28;20061;-62
2022/12/11 11:02:34;;;;;;;4.00;3.42;;;21.20;34.40;;;;;;5028422;28;20128;-62
2022/12/11 11:05:16;;;;;;;3.90;2.88;;;21.30;34.40;;;;;;5028989;28;20049;-62
2022/12/11 11:07:43;;;;;;;3.80;3.17;;;21.30;34.30;;;;;;5028795;28;20041;-62
2022/12/11 11:10:16;;;;;;;2.72;2.50;;;21.30;34.20;;;;;;5028789;28;20060;-62
2022/12/11 11:12:47;;;;;;;3.35;3.05;;;21.30;34.10;;;;;;5025218;28;20049;-62
2022/12/11 11:15:21;;;;;;;4.05;3.10;;;21.40;34.20;;;;;;5026967;28;20060;-62
2022/12/11 11:17:53;;;;;;;3.83;3.00;;;21.40;34.10;;;;;;5026824;28;20417;-62
2022/12/11 11:20:28;;;;;;;6.57;2.95;;;21.40;34.10;;;;;;5027574;28;20100;-62
2022/12/11 11:22:59;;;;;;;4.90;3.17;;;21.40;34.00;;;;;;5026766;28;20394;-63
2022/12/11 11:25:29;;;;;;;4.00;3.13;;;21.40;33.90;;;;;;5027264;28;20072;-62
2022/12/11 11:28:05;;;;;;;5.00;3.25;;;21.50;33.80;;;;;;5028259;28;20049;-62
2022/12/11 11:30:41;;;;;;;4.18;2.80;;;21.50;33.70;;;;;;5026821;28;20057;-62
2022/12/11 11:33:20;;;;;;;3.70;2.92;;;21.50;33.70;;;;;;5026446;28;20048;-62
2022/12/11 11:36:01;;;;;;;3.53;2.95;;;21.50;33.70;;;;;;5027509;28;20536;-62
2022/12/11 11:38:35;;;;;;;2.70;2.45;;;21.50;34.20;;;;;;5029775;28;20133;-62
2022/12/11 11:41:22;;;;;;;3.63;3.00;;;21.60;33.60;;;;;;5030406;28;20057;-62
2022/12/11 11:43:55;;;;;;;4.68;3.45;;;21.60;33.60;;;;;;5026293;28;20085;-62
2022/12/11 11:46:37;;;;;;;3.40;2.92;;;21.60;33.60;;;;;;5030002;28;20045;-62
2022/12/11 11:49:44;;;;;;;3.35;2.85;;;21.60;33.60;;;;;;5030556;28;20133;-62
2022/12/11 11:52:18;;;;;;;3.58;2.75;;;21.60;33.50;;;;;;5030463;28;20048;-62
2022/12/11 11:55:10;;;;;;;4.82;3.60;;;21.60;33.60;;;;;;5030117;28;20472;-62
2022/12/11 11:57:56;;;;;;;4.07;3.05;;;21.60;33.40;;;;;;5030370;28;20277;-62
2022/12/11 12:00:25;;;;;;;3.55;2.88;;;21.60;33.40;;;;;;5030068;28;20042;-62
2022/12/11 12:03:12;;;;;;;3.53;2.80;;;21.60;33.30;;;;;;5030097;28;20081;-62
2022/12/11 12:06:06;;;;;;;2.85;2.63;;;21.60;33.30;;;;;;5030816;28;20045;-62
2022/12/11 12:08:43;;;;;;;;;;;21.60;33.30;;;;;;5031177;28;20096;-62
2022/12/11 12:11:39;;;;;;;3.60;2.28;;;21.60;33.20;;;;;;5029200;28;19921;-62
2022/12/11 12:14:22;;;;;;;3.70;2.50;;;21.60;33.10;;;;;;5030047;28;20045;-62
2022/12/11 12:17:36;;;;;;;3.53;2.80;;;21.70;33.30;;;;;;5025571;28;20176;-62
2022/12/11 12:20:30;;;;;;;2.78;2.30;;;21.60;33.20;;;;;;5028713;28;20045;-63
2022/12/11 12:23:27;;;;;;;3.95;2.83;;;21.70;33.20;;;;;;5028867;28;20053;-62
2022/12/11 12:26:14;;;;;;;3.30;2.58;;;21.70;33.10;;;;;;5029808;28;20053;-62
2022/12/11 12:29:01;;;;;;;2.55;2.35;;;21.60;33.10;;;;;;5030454;28;20045;-62
2022/12/11 12:32:08;;;;;;;4.00;2.80;;;21.60;33.20;;;;;;5027461;28;20490;-62
2022/12/11 12:35:15;;;;;;;3.78;2.63;;;21.60;33.20;;;;;;5029284;28;20486;-62
2022/12/11 12:37:57;;;;;;;2.60;2.40;;;21.60;33.10;;;;;;5029167;28;20132;-62
2022/12/11 12:40:54;;;;;;;3.58;2.80;;;21.60;33.10;;;;;;5028829;28;20406;-62
2022/12/11 12:43:49;;;;;;;2.50;2.30;;;21.60;33.10;;;;;;5029129;28;20316;-62
2022/12/11 12:46:45;;;;;;;3.42;2.83;;;21.60;33.10;;;;;;5029455;28;20144;-62
2022/12/11 12:49:26;;;;;;;2.95;2.33;;;21.60;32.90;;;;;;5024715;28;20042;-62
2022/12/11 12:51:54;;;;;;;2.92;2.53;;;21.60;32.90;;;;;;5029083;28;20059;-62
2022/12/11 12:54:22;;;;;;;2.92;2.53;;;21.60;32.90;;;;;;5029382;28;20045;-62
2022/12/11 12:56:49;;;;;;;3.10;2.50;;;21.60;32.90;;;;;;5028908;28;20050;-62
2022/12/11 12:59:23;;;;;;;4.20;2.75;;;21.60;32.90;;;;;;5028584;28;20505;-62
2022/12/11 13:01:55;;;;;;;3.40;2.38;;;21.60;33.00;;;;;;5029027;28;20055;-62
2022/12/11 13:04:40;;;;;;;3.50;2.40;;;21.60;32.90;;;;;;5029513;28;20111;-62
2022/12/11 13:07:29;;;;;;;2.92;2.22;;;21.60;32.90;;;;;;5028496;28;20132;-62
2022/12/11 13:10:24;;;;;;;2.70;2.45;;;21.60;32.80;;;;;;5029353;28;20525;-62
2022/12/11 13:12:51;;;;;;;3.17;2.20;;;21.60;32.70;;;;;;5029240;28;20076;-62
2022/12/11 13:15:32;;;;;;;2.90;2.60;;;21.60;32.60;;;;;;5029224;28;20122;-62
2022/12/11 13:18:00;;;;;;;3.05;2.55;;;21.60;32.70;;;;;;5028995;28;20071;-62
2022/12/11 13:20:31;;;;;;;2.53;2.33;;;21.60;32.60;;;;;;5027039;28;20045;-62
2022/12/11 13:23:26;;;;;;;2.85;2.15;;;21.60;32.70;;;;;;5026335;28;20052;-62
2022/12/11 13:25:57;;;;;;;2.85;2.55;;;21.60;32.60;;;;;;5028812;28;20513;-62
2022/12/11 13:28:49;;;;;;;2.38;2.17;;;21.60;32.70;;;;;;5028815;28;20285;-62
2022/12/11 13:31:38;;;;;;;3.28;2.55;;;21.60;32.70;;;;;;5008933;28;20054;-63